EGOM

RAF Spadeadam Airport

Spadeadam, United Kingdom
METAR EGOM 242350Z AUTO 25011KT 4700 BR OVC001/// 05/05 Q1004
Observed Flight Rules
Apr-24 @ 23:50 UTC (49 minutes ago) Instrument Flight Rules
Wind Visibility Clouds Conditions
250° at 11 knots 4,699 meters
  • Overcast at 100' AGL
  • Mist
Temperatures Readings
Current 5°C / 41°F
Dewpoint 5°C / 41°F
Humidity 100%
Altimeter 29.65" Hg
Pressure 1004 hPa
Elevation 325
METAR EGOM 242350Z AUTO 25011KT 4700 BR OVC001/// 05/05 Q1004
Observed Flight Rules
Apr-24 @ 23:50 UTC
(49 minutes ago)
LIFR
Wind Visibility
250° at 11 knots 4,699 meters
Clouds
  • Overcast at 100' AGL
Conditions
  • Mist
Temperature Dewpoint
5°C / 41°F 5°C / 41°F
Humidity Altimeter Pressure
100% 29.65" Hg 1004 hPa